Time;durP1;ratioP1;P1;durP2;ratioP2;P2;SDS_P1;SDS_P2;PMS_P1;PMS_P2;Temp;Humidity;BMP_temperature;BMP_pressure;BME280_temperature;BME280_humidity;BME280_pressure;Samples;Min_cycle;Max_cycle;Signal;HPM_P1;HPM_P2
2023/12/20 00:00:41;;;;;;;7.70;5.20;;;;;;;2.79;100.00;63209.47;5112062;28;20204;-55
2023/12/20 00:03:07;;;;;;;9.30;5.50;;;;;;;2.66;100.00;63198.38;5111954;28;20277;-54
2023/12/20 00:05:33;;;;;;;7.87;4.87;;;;;;;2.78;100.00;63210.88;5112452;28;20221;-55
2023/12/20 00:07:58;;;;;;;9.40;6.07;;;;;;;2.95;100.00;63229.34;5111422;28;20239;-55
2023/12/20 00:10:24;;;;;;;8.20;5.73;;;;;;;3.08;100.00;63241.50;5111685;28;20190;-53
2023/12/20 00:12:49;;;;;;;10.00;5.63;;;;;;;3.07;100.00;63240.41;5093684;28;20280;-56
2023/12/20 00:15:15;;;;;;;9.10;5.77;;;;;;;3.12;100.00;63248.34;5111162;28;20183;-54
2023/12/20 00:17:40;;;;;;;7.77;5.43;;;;;;;3.22;100.00;63259.19;5112114;28;20259;-57
2023/12/20 00:20:07;;;;;;;13.90;5.50;;;;;;;3.20;100.00;63257.03;5093533;28;20195;-55
2023/12/20 00:22:33;;;;;;;11.13;6.10;;;;;;;3.25;100.00;63259.44;5111309;28;20697;-55
2023/12/20 00:24:58;;;;;;;10.43;6.40;;;;;;;3.22;100.00;63258.66;5111027;28;20193;-54
2023/12/20 00:27:24;;;;;;;9.20;6.00;;;;;;;3.20;100.00;63257.03;5111879;28;20293;-54
2023/12/20 00:29:50;;;;;;;10.60;6.53;;;;;;;3.11;100.00;63244.22;5111799;28;20196;-54
2023/12/20 00:32:16;;;;;;;11.63;6.80;;;;;;;3.14;100.00;63247.47;5111662;28;20222;-54
2023/12/20 00:34:42;;;;;;;9.40;5.87;;;;;;;3.27;100.00;63262.13;5093287;28;20360;-55
2023/12/20 00:37:08;;;;;;;12.50;7.37;;;;;;;3.29;100.00;63266.78;5111431;28;20301;-56
2023/12/20 00:39:33;;;;;;;11.77;7.77;;;;;;;3.05;100.00;63242.69;5111531;28;20267;-57
2023/12/20 00:41:59;;;;;;;14.30;8.30;;;;;;;2.91;100.00;63225.53;5111622;28;20323;-55
2023/12/20 00:44:24;;;;;;;12.50;8.03;;;;;;;2.88;100.00;63222.28;5093462;28;20606;-56
2023/12/20 00:46:50;;;;;;;10.97;6.50;;;;;;;2.85;100.00;63214.03;5111923;28;20221;-58
2023/12/20 00:49:15;;;;;;;10.13;6.20;;;;;;;2.84;100.00;63217.38;5111443;28;20650;-54
2023/12/20 00:51:41;;;;;;;10.77;6.07;;;;;;;2.75;100.00;63207.63;5111320;28;20222;-55
2023/12/20 00:54:06;;;;;;;9.13;5.03;;;;;;;2.69;100.00;63199.16;5111387;28;20183;-53
2023/12/20 00:56:32;;;;;;;7.80;4.70;;;;;;;2.62;100.00;63193.50;5111064;28;20557;-55
2023/12/20 00:58:57;;;;;;;7.10;4.53;;;;;;;2.63;100.00;63194.59;5111278;28;20181;-53
2023/12/20 01:01:23;;;;;;;7.90;4.93;;;;;;;2.46;100.00;63174.19;5111294;28;20632;-54
2023/12/20 01:03:51;;;;;;;7.07;4.30;;;;;;;2.30;100.00;63159.31;5113458;28;20255;-54
2023/12/20 01:06:16;;;;;;;5.60;3.87;;;;;;;2.21;100.00;63149.53;5096488;28;20188;-53
2023/12/20 01:08:42;;;;;;;7.80;4.73;;;;;;;2.22;100.00;63148.69;5114702;28;20203;-53
2023/12/20 01:11:07;;;;;;;6.80;4.30;;;;;;;2.15;100.00;63140.56;5114925;28;20551;-55
2023/12/20 01:13:33;;;;;;;6.07;4.23;;;;;;;2.06;100.00;63130.78;5114485;28;20215;-57
2023/12/20 01:15:59;;;;;;;7.50;4.40;;;;;;;1.97;100.00;63123.50;5114843;28;20196;-55
2023/12/20 01:18:25;;;;;;;7.47;4.87;;;;;;;2.03;100.00;63127.53;5114545;28;20201;-54
2023/12/20 01:20:50;;;;;;;6.23;4.10;;;;;;;1.93;100.00;63119.72;5114338;28;20191;-52
2023/12/20 01:23:16;;;;;;;6.23;4.50;;;;;;;1.89;100.00;63114.81;5114391;28;20200;-53
2023/12/20 01:25:41;;;;;;;7.70;4.53;;;;;;;1.78;100.00;63103.44;5114514;28;20220;-55
2023/12/20 01:28:07;;;;;;;8.37;5.03;;;;;;;1.78;100.00;63102.91;5114297;28;20203;-55
2023/12/20 01:30:32;;;;;;;6.03;4.20;;;;;;;1.83;100.00;63106.38;5114434;28;20291;-55
2023/12/20 01:33:00;;;;;;;7.53;4.33;;;;;;;1.77;100.00;63102.38;5096193;28;20691;-53
2023/12/20 01:35:26;;;;;;;7.47;4.30;;;;;;;1.73;100.00;63097.47;5114306;28;20562;-56
2023/12/20 01:37:51;;;;;;;7.27;4.00;;;;;;;1.76;100.00;63098.25;5079050;28;20226;-54
2023/12/20 01:40:17;;;;;;;7.20;4.60;;;;;;;1.93;100.00;63119.16;5114146;28;20320;-59
2023/12/20 01:42:42;;;;;;;6.97;4.53;;;;;;;1.98;100.00;63127.09;5114128;28;20271;-53
2023/12/20 01:45:09;;;;;;;10.07;5.87;;;;;;;2.09;100.00;63136.53;5114211;28;20211;-53
2023/12/20 01:47:35;;;;;;;10.83;6.57;;;;;;;2.23;100.00;63149.78;5114410;28;20272;-57
2023/12/20 01:50:03;;;;;;;8.63;5.53;;;;;;;2.24;100.00;63150.31;5113994;28;20219;-53
2023/12/20 01:52:29;;;;;;;10.20;5.63;;;;;;;2.29;100.00;63158.78;5113801;28;20629;-54
2023/12/20 01:55:00;;;;;;;8.50;5.80;;;;;;;2.21;100.00;63149.53;5095992;28;20195;-59
2023/12/20 01:57:27;;;;;;;8.40;5.57;;;;;;;2.12;100.00;63137.31;5114187;28;20224;-53
2023/12/20 01:59:53;;;;;;;9.33;5.67;;;;;;;2.22;100.00;63150.63;5113751;28;20184;-55
2023/12/20 02:02:19;;;;;;;9.97;5.63;;;;;;;2.22;100.00;63148.69;5114230;28;20226;-54
2023/12/20 02:04:45;;;;;;;7.40;5.07;;;;;;;2.29;100.00;63158.78;5114341;28;20669;-55
2023/12/20 02:07:12;;;;;;;7.40;4.97;;;;;;;2.23;100.00;63149.22;5113875;28;20725;-54
2023/12/20 02:09:38;;;;;;;7.77;5.30;;;;;;;2.20;100.00;63148.47;5095421;28;20187;-55
2023/12/20 02:12:04;;;;;;;7.97;5.60;;;;;;;2.22;100.00;63145.66;5114008;28;20214;-55
2023/12/20 02:14:30;;;;;;;7.77;5.50;;;;;;;2.45;100.00;63175.59;5113276;28;20187;-55
2023/12/20 02:16:56;;;;;;;8.17;5.37;;;;;;;2.42;100.00;63169.84;5113853;28;20316;-55
2023/12/20 02:19:21;;;;;;;15.37;9.83;;;;;;;2.52;100.00;63178.75;5113747;28;20222;-54
2023/12/20 02:21:47;;;;;;;25.63;14.20;;;;;;;2.51;100.00;63182.66;5113455;28;20249;-53
2023/12/20 02:24:13;;;;;;;31.07;19.43;;;;;;;2.44;100.00;63175.03;5113521;28;20188;-53
2023/12/20 02:26:38;;;;;;;36.73;20.47;;;;;;;2.51;100.00;63179.63;5113691;28;20264;-53
2023/12/20 02:29:04;;;;;;;40.40;21.27;;;;;;;2.42;100.00;63172.88;5113437;28;20680;-55
2023/12/20 02:31:30;;;;;;;35.57;20.43;;;;;;;2.29;100.00;63158.22;5078476;28;20210;-55
2023/12/20 02:33:55;;;;;;;28.93;16.67;;;;;;;2.16;100.00;63144.13;5113294;28;20184;-57
2023/12/20 02:36:20;;;;;;;29.57;16.30;;;;;;;2.17;100.00;63145.19;5113300;28;20195;-54
2023/12/20 02:38:46;;;;;;;19.73;11.60;;;;;;;2.13;100.00;63143.34;5113342;28;20187;-53
2023/12/20 02:41:12;;;;;;;23.60;14.53;;;;;;;2.33;100.00;63162.56;5095132;28;20272;-54
2023/12/20 02:43:37;;;;;;;26.13;14.70;;;;;;;2.21;100.00;63150.09;5113162;28;20214;-55
2023/12/20 02:46:03;;;;;;;31.07;18.00;;;;;;;2.20;100.00;63149.00;5113236;28;20196;-55
2023/12/20 02:48:29;;;;;;;30.97;19.03;;;;;;;2.10;100.00;63140.63;5111157;28;20211;-54
2023/12/20 02:50:54;;;;;;;32.60;19.67;;;;;;;2.31;100.00;63160.38;5113151;28;20201;-53
2023/12/20 02:53:20;;;;;;;41.33;22.37;;;;;;;2.24;100.00;63152.81;5113060;28;20215;-53
2023/12/20 02:55:46;;;;;;;35.13;21.30;;;;;;;2.01;100.00;63127.84;5094673;28;20568;-53
2023/12/20 02:58:11;;;;;;;38.50;22.73;;;;;;;1.84;100.00;63109.41;5112960;28;20199;-54
2023/12/20 03:00:37;;;;;;;35.23;22.27;;;;;;;2.04;100.00;63133.59;5113006;28;20194;-55
2023/12/20 03:03:02;;;;;;;37.30;22.60;;;;;;;1.91;100.00;63115.06;5112785;28;20291;-54
2023/12/20 03:05:28;;;;;;;40.80;24.63;;;;;;;1.82;100.00;63104.75;5112937;28;20184;-54
2023/12/20 03:07:54;;;;;;;41.00;23.93;;;;;;;1.91;100.00;63117.00;5112667;28;20212;-54
2023/12/20 03:10:26;;;;;;;42.93;24.87;;;;;;;1.87;100.00;63113.22;5112827;28;20689;-54
2023/12/20 03:12:52;;;;;;;43.13;24.57;;;;;;;1.69;100.00;63094.22;5112665;28;20246;-54
2023/12/20 03:15:17;;;;;;;44.30;24.07;;;;;;;1.75;100.00;63099.66;5112473;28;20222;-55
2023/12/20 03:17:43;;;;;;;36.67;23.30;;;;;;;1.48;100.00;63073.94;5094476;28;20207;-55
2023/12/20 03:20:09;;;;;;;52.53;30.47;;;;;;;1.23;100.00;63046.81;5112551;28;20319;-54
2023/12/20 03:22:35;;;;;;;45.57;25.07;;;;;;;1.54;100.00;63077.41;5112366;28;20230;-53
2023/12/20 03:25:00;;;;;;;44.00;24.47;;;;;;;1.50;100.00;63073.06;5111941;28;20195;-54
2023/12/20 03:27:26;;;;;;;49.63;26.60;;;;;;;1.37;100.00;63056.50;5093862;28;20207;-55
2023/12/20 03:29:52;;;;;;;42.40;25.30;;;;;;;1.14;100.00;63032.13;5112520;28;20194;-54
2023/12/20 03:32:18;;;;;;;43.07;25.10;;;;;;;1.25;100.00;63046.00;5073573;22;20225;-54
2023/12/20 03:34:43;;;;;;;42.10;24.27;;;;;;;1.32;100.00;63054.09;5051950;28;20209;-55
2023/12/20 03:37:09;;;;;;;42.87;24.20;;;;;;;1.09;100.00;63029.16;5052089;28;20213;-54
2023/12/20 03:39:34;;;;;;;45.37;22.87;;;;;;;1.07;100.00;63024.53;5034114;28;20189;-56
2023/12/20 03:42:00;;;;;;;42.03;23.83;;;;;;;1.09;100.00;63029.16;5033785;28;20217;-53
2023/12/20 03:44:26;;;;;;;40.80;24.93;;;;;;;0.96;100.00;63012.63;5051903;28;20687;-53
2023/12/20 03:46:51;;;;;;;36.47;21.87;;;;;;;1.00;100.00;63019.44;5051947;28;20209;-53
2023/12/20 03:49:17;;;;;;;37.60;22.77;;;;;;;0.93;100.00;63011.84;5051660;28;20235;-55
2023/12/20 03:51:42;;;;;;;33.80;20.50;;;;;;;1.10;100.00;63030.25;5033526;28;20221;-59
2023/12/20 03:54:08;;;;;;;38.97;23.10;;;;;;;1.14;100.00;63034.06;5033649;28;20193;-55
2023/12/20 03:56:33;;;;;;;32.97;18.90;;;;;;;1.33;100.00;63052.72;5051470;28;20201;-54
2023/12/20 03:58:59;;;;;;;27.20;17.73;;;;;;;1.21;100.00;63039.69;5051336;28;20177;-55
2023/12/20 04:01:25;;;;;;;25.50;15.60;;;;;;;1.25;100.00;63046.00;5051646;28;20300;-53
2023/12/20 04:03:51;;;;;;;18.40;12.03;;;;;;;1.37;100.00;63059.53;5051309;28;20193;-54
2023/12/20 04:06:18;;;;;;;17.50;10.80;;;;;;;1.51;100.00;63072.25;5033586;28;20197;-56
2023/12/20 04:08:43;;;;;;;21.67;12.70;;;;;;;1.63;100.00;63085.25;5051862;28;20709;-54
2023/12/20 04:11:09;;;;;;;16.83;10.63;;;;;;;1.61;100.00;63085.56;5051632;28;20201;-53
2023/12/20 04:13:34;;;;;;;18.37;11.17;;;;;;;1.51;100.00;63074.72;5051099;28;20209;-53
2023/12/20 04:16:00;;;;;;;12.70;7.60;;;;;;;1.48;100.00;63068.44;5051250;28;20197;-54
2023/12/20 04:18:26;;;;;;;10.00;6.53;;;;;;;1.40;100.00;63062.78;5050999;28;20588;-54
2023/12/20 04:20:51;;;;;;;11.23;7.07;;;;;;;1.40;100.00;63060.31;5051130;28;20190;-55
2023/12/20 04:23:17;;;;;;;14.90;7.87;;;;;;;1.45;100.00;63065.72;5051211;28;20576;-56
2023/12/20 04:25:42;;;;;;;8.43;5.97;;;;;;;1.65;100.00;63089.91;5049610;28;20190;-54
2023/12/20 04:28:08;;;;;;;11.87;7.33;;;;;;;1.66;100.00;63090.41;5050802;28;20217;-54
2023/12/20 04:30:33;;;;;;;10.63;6.53;;;;;;;1.86;100.00;63109.09;5050982;28;20183;-57
2023/12/20 04:32:59;;;;;;;15.47;9.80;;;;;;;1.90;100.00;63113.97;5050921;28;20213;-56
2023/12/20 04:35:24;;;;;;;18.23;9.07;;;;;;;1.75;100.00;63097.72;5050778;28;20181;-55
2023/12/20 04:37:50;;;;;;;15.43;8.90;;;;;;;1.78;100.00;63102.91;5050565;28;20587;-54
2023/12/20 04:40:16;;;;;;;18.93;10.17;;;;;;;1.80;100.00;63105.59;5050678;28;20185;-54
2023/12/20 04:42:42;;;;;;;18.73;10.20;;;;;;;1.69;100.00;63093.69;5050013;28;20231;-54
2023/12/20 04:45:08;;;;;;;14.47;8.93;;;;;;;1.62;100.00;63086.63;5031851;28;20192;-55
2023/12/20 04:47:33;;;;;;;20.03;10.53;;;;;;;1.68;100.00;63090.66;5050021;28;20205;-53
2023/12/20 04:49:59;;;;;;;28.07;13.77;;;;;;;1.77;100.00;63101.81;5050708;28;20242;-58
2023/12/20 04:52:25;;;;;;;31.50;16.70;;;;;;;1.71;100.00;63095.84;5050307;28;20205;-54
2023/12/20 04:54:51;;;;;;;28.77;17.57;;;;;;;1.60;100.00;63084.47;5050564;28;20189;-55
2023/12/20 04:57:16;;;;;;;37.37;18.57;;;;;;;1.57;100.00;63081.22;5032457;28;20301;-54
2023/12/20 04:59:42;;;;;;;41.73;20.27;;;;;;;1.25;100.00;63044.03;5050675;28;20620;-54
2023/12/20 05:02:07;;;;;;;43.20;22.23;;;;;;;1.18;100.00;63038.38;5032323;28;20221;-53
2023/12/20 05:04:33;;;;;;;47.27;24.43;;;;;;;1.29;100.00;63050.31;5050417;28;20243;-56
2023/12/20 05:06:59;;;;;;;53.40;25.90;;;;;;;1.25;100.00;63046.50;5050154;28;20210;-54
2023/12/20 05:09:25;;;;;;;60.10;27.30;;;;;;;1.02;100.00;63024.06;5050469;28;20177;-52
2023/12/20 05:11:50;;;;;;;58.00;28.83;;;;;;;0.77;100.00;62997.53;5032657;28;20219;-53
2023/12/20 05:14:16;;;;;;;56.67;28.03;;;;;;;0.38;100.00;62950.34;5050358;28;20250;-53
2023/12/20 05:16:49;;;;;;;54.10;28.40;;;;;;;0.38;100.00;62952.81;5050343;28;20213;-53
2023/12/20 05:19:14;;;;;;;52.93;25.67;;;;;;;0.69;100.00;62986.38;5049999;28;20197;-54
2023/12/20 05:21:40;;;;;;;55.17;26.17;;;;;;;0.63;100.00;62979.34;5049353;28;20217;-53
2023/12/20 05:24:05;;;;;;;62.97;26.00;;;;;;;0.64;100.00;62980.44;5050300;28;20182;-53
2023/12/20 05:26:31;;;;;;;52.80;23.30;;;;;;;0.30;100.00;62944.16;5050069;28;20324;-59
2023/12/20 05:28:56;;;;;;;55.10;21.13;;;;;;;0.04;100.00;62916.00;5032364;28;20184;-54
2023/12/20 05:31:22;;;;;;;48.00;20.83;;;;;;;0.02;100.00;62911.38;5049951;28;20258;-52
2023/12/20 05:33:47;;;;;;;78.87;20.70;;;;;;;0.00;100.00;62912.22;5050238;28;20182;-54
2023/12/20 05:36:14;;;;;;;44.00;19.37;;;;;;;0.24;100.00;62934.63;5050276;28;20190;-54
2023/12/20 05:38:40;;;;;;;38.70;17.73;;;;;;;0.22;100.00;62932.47;5049936;28;20217;-58
2023/12/20 05:41:06;;;;;;;35.77;17.23;;;;;;;0.37;100.00;62951.72;5049768;28;20272;-54
2023/12/20 05:43:32;;;;;;;43.80;17.50;;;;;;;0.50;100.00;62965.81;5049839;28;20216;-54
2023/12/20 05:45:58;;;;;;;40.90;16.93;;;;;;;0.47;100.00;62962.00;5049935;28;20200;-55
2023/12/20 05:48:24;;;;;;;35.17;16.93;;;;;;;0.89;100.00;63006.97;5050115;28;20209;-54
2023/12/20 05:50:49;;;;;;;37.53;17.63;;;;;;;0.76;100.00;62993.97;5035534;28;20193;-54
2023/12/20 05:53:14;;;;;;;40.47;17.50;;;;;;;0.86;100.00;62999.31;5053319;28;20229;-54
2023/12/20 05:55:40;;;;;;;46.27;19.30;;;;;;;1.03;100.00;63022.66;5053125;28;20248;-54
2023/12/20 05:58:06;;;;;;;39.53;18.07;;;;;;;0.71;100.00;62986.06;5035437;28;20244;-58
2023/12/20 06:00:31;;;;;;;41.73;19.13;;;;;;;0.83;100.00;62998.53;5035247;28;20686;-55
2023/12/20 06:02:57;;;;;;;42.23;19.20;;;;;;;0.89;100.00;63004.50;5052829;28;20221;-53
2023/12/20 06:05:22;;;;;;;37.13;18.63;;;;;;;0.87;100.00;63002.34;5053033;28;20232;-54
2023/12/20 06:07:49;;;;;;;40.73;17.23;;;;;;;0.92;100.00;63010.75;5052966;28;20220;-55
2023/12/20 06:10:15;;;;;;;39.50;18.87;;;;;;;0.79;100.00;62994.19;5035488;28;20636;-52
2023/12/20 06:12:40;;;;;;;38.30;17.63;;;;;;;0.68;100.00;62980.34;5052183;28;20228;-54
2023/12/20 06:15:06;;;;;;;37.07;18.17;;;;;;;0.78;100.00;62995.59;5053008;28;20189;-53
2023/12/20 06:17:32;;;;;;;32.40;15.83;;;;;;;0.71;100.00;62988.53;5053104;28;20264;-55
2023/12/20 06:19:57;;;;;;;38.90;17.20;;;;;;;0.90;100.00;63006.13;5052781;28;20260;-54
2023/12/20 06:22:23;;;;;;;35.53;17.47;;;;;;;0.73;100.00;62990.72;5034928;28;20776;-55
2023/12/20 06:24:48;;;;;;;41.80;16.90;;;;;;;0.72;100.00;62989.09;5034901;28;20193;-53
2023/12/20 06:27:14;;;;;;;33.83;16.40;;;;;;;1.00;100.00;63019.44;5052786;28;20219;-54
2023/12/20 06:29:41;;;;;;;42.30;18.13;;;;;;;0.89;100.00;63007.50;5052582;28;20649;-54
2023/12/20 06:32:06;;;;;;;41.97;17.23;;;;;;;1.05;100.00;63024.31;5052569;28;20219;-54
2023/12/20 06:34:32;;;;;;;38.90;17.20;;;;;;;1.06;100.00;63025.38;5052808;28;20182;-54
2023/12/20 06:36:57;;;;;;;41.20;16.73;;;;;;;0.91;100.00;63009.16;5034843;28;20217;-55
2023/12/20 06:39:23;;;;;;;47.80;23.67;;;;;;;0.75;100.00;62992.34;5052691;28;20600;-55
2023/12/20 06:41:48;;;;;;;36.03;16.87;;;;;;;0.89;100.00;63007.50;5050873;28;20229;-60
2023/12/20 06:44:14;;;;;;;39.20;15.97;;;;;;;0.75;100.00;62992.88;5035179;28;20268;-58
2023/12/20 06:46:39;;;;;;;33.57;15.93;;;;;;;0.81;100.00;62996.34;5052246;28;20252;-54
2023/12/20 06:49:05;;;;;;;30.53;14.50;;;;;;;0.88;100.00;63003.94;5034674;28;20219;-53
2023/12/20 06:51:30;;;;;;;28.40;14.80;;;;;;;1.01;100.00;63019.97;5034467;28;20346;-54
2023/12/20 06:53:56;;;;;;;26.23;14.03;;;;;;;0.92;100.00;63010.75;5034572;28;20186;-53
2023/12/20 06:56:22;;;;;;;43.33;21.03;;;;;;;1.14;100.00;63031.56;5052225;28;20667;-55
2023/12/20 06:58:47;;;;;;;28.47;15.50;;;;;;;1.13;100.00;63032.97;5052223;28;20551;-55
2023/12/20 07:01:14;;;;;;;47.27;24.10;;;;;;;1.03;100.00;63022.66;5052098;28;20236;-54
2023/12/20 07:03:40;;;;;;;51.50;24.00;;;;;;;1.13;100.00;63033.50;5052195;28;20584;-54
2023/12/20 07:06:06;;;;;;;50.63;23.67;;;;;;;0.92;100.00;63008.28;5052385;28;20222;-54
2023/12/20 07:08:32;;;;;;;48.20;24.73;;;;;;;1.15;100.00;63035.69;5052130;28;20220;-55
2023/12/20 07:10:57;;;;;;;39.07;21.33;;;;;;;1.36;100.00;63055.41;5052242;28;20193;-54
2023/12/20 07:13:23;;;;;;;38.83;20.90;;;;;;;1.48;100.00;63071.44;5052062;28;20288;-55
2023/12/20 07:15:49;;;;;;;59.80;28.63;;;;;;;1.78;100.00;63102.91;5034273;28;20208;-54
2023/12/20 07:18:16;;;;;;;48.57;24.67;;;;;;;1.98;100.00;63122.13;5052034;28;20201;-56
2023/12/20 07:20:43;;;;;;;31.53;15.50;;;;;;;2.37;100.00;63166.91;5033973;28;20679;-55
2023/12/20 07:23:09;;;;;;;29.13;14.67;;;;;;;2.22;100.00;63148.16;5051913;28;20210;-55
2023/12/20 07:25:34;;;;;;;26.77;15.43;;;;;;;2.22;100.00;63150.63;5052009;28;20188;-54
2023/12/20 07:28:00;;;;;;;32.40;16.93;;;;;;;2.40;100.00;63167.69;5034058;28;20211;-54
2023/12/20 07:30:26;;;;;;;47.67;24.50;;;;;;;2.55;100.00;63186.97;5051883;28;20238;-57
2023/12/20 07:32:52;;;;;;;53.97;26.27;;;;;;;2.88;100.00;63222.28;5051722;28;20717;-55
2023/12/20 07:35:18;;;;;;;41.67;23.93;;;;;;;2.64;100.00;63195.66;5051771;28;20189;-54
2023/12/20 07:37:44;;;;;;;44.07;22.63;;;;;;;2.52;100.00;63183.72;5051787;28;20689;-55
2023/12/20 07:40:10;;;;;;;35.13;17.63;;;;;;;2.38;100.00;63165.50;5051870;28;20192;-59
2023/12/20 07:42:36;;;;;;;33.10;15.73;;;;;;;2.53;100.00;63182.31;5051467;28;20223;-54
2023/12/20 07:45:02;;;;;;;26.77;15.50;;;;;;;2.47;100.00;63178.31;5051332;28;20178;-55
2023/12/20 07:47:27;;;;;;;31.50;16.43;;;;;;;2.55;100.00;63184.50;5051845;28;20255;-55
2023/12/20 07:49:53;;;;;;;34.50;17.93;;;;;;;2.11;100.00;63136.22;5051741;28;20201;-54
2023/12/20 07:52:19;;;;;;;33.93;19.30;;;;;;;1.91;100.00;63112.03;5051476;28;20274;-55
2023/12/20 07:54:45;;;;;;;44.10;20.30;;;;;;;2.24;100.00;63150.31;5051308;28;20591;-53
2023/12/20 07:57:12;;;;;;;39.13;20.03;;;;;;;1.97;100.00;63126.53;5051616;28;20648;-56
2023/12/20 07:59:37;;;;;;;47.70;23.20;;;;;;;1.95;100.00;63116.91;5051382;28;20214;-53
2023/12/20 08:02:06;;;;;;;54.53;24.33;;;;;;;1.70;100.00;63095.31;5051233;28;20602;-54
2023/12/20 08:04:32;;;;;;;55.07;25.17;;;;;;;1.77;100.00;63101.81;5033217;28;20262;-55
2023/12/20 08:06:58;;;;;;;57.30;26.20;;;;;;;1.79;100.00;63102.03;5049943;28;20217;-57
2023/12/20 08:09:24;;;;;;;58.67;26.50;;;;;;;2.01;100.00;63125.38;5048950;28;20190;-55
2023/12/20 08:11:49;;;;;;;45.67;24.23;;;;;;;2.45;100.00;63176.13;5048545;28;20635;-54
2023/12/20 08:14:16;;;;;;;55.17;25.17;;;;;;;2.42;100.00;63172.34;5048980;28;20266;-55
2023/12/20 08:16:41;;;;;;;57.73;25.50;;;;;;;2.49;100.00;63177.44;5049004;28;20697;-58
2023/12/20 08:19:07;;;;;;;50.73;24.30;;;;;;;2.62;100.00;63189.06;5031081;28;20185;-55
2023/12/20 08:21:33;;;;;;;42.90;22.50;;;;;;;2.70;100.00;63202.19;5030915;28;20221;-63
2023/12/20 08:24:00;;;;;;;44.53;22.40;;;;;;;2.88;100.00;63219.25;5051150;28;20205;-58
2023/12/20 08:26:26;;;;;;;51.17;23.60;;;;;;;3.01;100.00;63235.84;5050961;28;20328;-55
2023/12/20 08:28:52;;;;;;;52.30;23.80;;;;;;;3.16;100.00;63249.63;5051325;28;20238;-54
2023/12/20 08:31:18;;;;;;;46.23;23.63;;;;;;;3.12;100.00;63245.28;5050728;28;20691;-54
2023/12/20 08:33:46;;;;;;;55.27;26.40;;;;;;;2.99;100.00;63231.72;5050886;28;20232;-54
2023/12/20 08:36:12;;;;;;;51.17;24.77;;;;;;;2.97;100.00;63231.50;5033036;28;20194;-54
2023/12/20 08:38:38;;;;;;;56.40;24.97;;;;;;;2.98;100.00;63232.59;5050790;28;20210;-54
2023/12/20 08:41:07;;;;;;;50.57;24.50;;;;;;;2.97;100.00;63231.50;5050820;28;20208;-52
2023/12/20 08:43:36;;;;;;;53.50;25.00;;;;;;;3.06;100.00;63241.81;5050594;28;20208;-54
2023/12/20 08:46:02;;;;;;;49.20;25.83;;;;;;;3.02;100.00;63235.00;5051027;28;20197;-54
2023/12/20 08:48:28;;;;;;;54.90;24.27;;;;;;;3.28;100.00;63262.69;5050767;28;20201;-55
2023/12/20 08:50:54;;;;;;;50.70;23.63;;;;;;;3.39;100.00;63277.13;5032740;28;20186;-55
2023/12/20 08:53:20;;;;;;;56.30;24.53;;;;;;;3.46;100.00;63281.69;5032670;28;20206;-54
2023/12/20 08:55:46;;;;;;;58.07;25.13;;;;;;;3.28;100.00;63265.72;5050765;28;20190;-54
2023/12/20 08:58:12;;;;;;;50.53;24.43;;;;;;;3.54;100.00;63292.88;5032712;28;20217;-54
2023/12/20 09:00:38;;;;;;;56.87;24.97;;;;;;;3.31;100.00;63268.97;5032605;28;20194;-55
2023/12/20 09:03:04;;;;;;;49.67;24.00;;;;;;;3.22;100.00;63256.72;5050393;28;20222;-54
2023/12/20 09:05:30;;;;;;;51.97;24.03;;;;;;;2.92;100.00;63224.13;5050342;28;20197;-54
2023/12/20 09:07:56;;;;;;;53.27;24.93;;;;;;;2.60;100.00;63191.88;5050558;28;20218;-55
2023/12/20 09:10:24;;;;;;;56.57;25.27;;;;;;;2.67;100.00;63196.97;5050240;28;20185;-54
2023/12/20 09:12:51;;;;;;;52.87;25.03;;;;;;;2.61;100.00;63192.94;5050371;28;20217;-55
2023/12/20 09:15:16;;;;;;;56.57;23.50;;;;;;;2.91;100.00;63222.50;5050403;28;20192;-55
2023/12/20 09:17:43;;;;;;;54.00;23.63;;;;;;;2.96;100.00;63230.41;5050530;28;20222;-54
2023/12/20 09:20:09;;;;;;;50.03;23.97;;;;;;;3.05;100.00;63235.22;5050192;28;20189;-56
2023/12/20 09:22:35;;;;;;;50.10;24.33;;;;;;;3.22;100.00;63253.66;5050367;28;20276;-54
2023/12/20 09:25:01;;;;;;;56.87;25.40;;;;;;;2.80;100.00;63211.09;5052818;28;20187;-54
2023/12/20 09:27:27;;;;;;;50.50;26.43;;;;;;;2.75;100.00;63203.19;5035999;28;20209;-55
2023/12/20 09:29:53;;;;;;;49.23;23.20;;;;;;;2.61;100.00;63192.44;5033934;28;20705;-54
2023/12/20 09:32:20;;;;;;;55.23;25.60;;;;;;;2.64;100.00;63193.72;5051241;28;20216;-55
2023/12/20 09:34:47;;;;;;;52.17;26.30;;;;;;;2.59;100.00;63187.75;5051346;28;20200;-54
2023/12/20 09:37:13;;;;;;;55.67;25.90;;;;;;;2.76;100.00;63209.25;5052621;28;20217;-54
2023/12/20 09:39:39;;;;;;;56.17;27.60;;;;;;;3.00;100.00;63235.31;5053315;28;20355;-54
2023/12/20 09:42:07;;;;;;;53.23;26.30;;;;;;;2.99;100.00;63234.22;5053063;28;20221;-55
2023/12/20 09:44:36;;;;;;;54.73;25.17;;;;;;;3.23;100.00;63257.78;5035461;28;20181;-55
2023/12/20 09:47:06;;;;;;;60.83;28.37;;;;;;;3.11;100.00;63244.22;5035492;28;20255;-55
2023/12/20 09:49:32;;;;;;;64.83;28.43;;;;;;;2.99;100.00;63231.19;5053390;28;20179;-54
2023/12/20 09:52:00;;;;;;;68.40;29.87;;;;;;;2.95;100.00;63229.34;5051804;28;20225;-55
2023/12/20 09:54:28;;;;;;;62.60;29.93;;;;;;;2.95;100.00;63229.34;5052105;28;20555;-62
2023/12/20 09:56:53;;;;;;;60.67;28.53;;;;;;;2.94;100.00;63228.25;5034903;28;20221;-55
2023/12/20 09:59:19;;;;;;;79.43;31.13;;;;;;;3.20;100.00;63251.50;5052566;28;20181;-54
2023/12/20 10:01:45;;;;;;;62.53;28.17;;;;;;;3.35;100.00;63270.28;5052356;28;20220;-55
2023/12/20 10:04:12;;;;;;;59.90;29.00;;;;;;;3.54;100.00;63293.41;5052550;28;20183;-54
2023/12/20 10:06:42;;;;;;;65.13;28.40;;;;;;;3.56;100.00;63295.03;5053010;28;20244;-58
2023/12/20 10:09:08;;;;;;;66.00;30.33;;;;;;;3.54;100.00;63290.91;5053021;28;20181;-55
2023/12/20 10:11:38;;;;;;;56.03;27.20;;;;;;;3.16;100.00;63249.63;5053208;28;20559;-55
2023/12/20 10:14:05;;;;;;;66.33;26.83;;;;;;;3.55;100.00;63294.50;5052982;28;20260;-54
2023/12/20 10:16:32;;;;;;;55.57;27.07;;;;;;;4.08;100.00;63349.59;5052995;28;20182;-55
2023/12/20 10:18:58;;;;;;;61.40;26.93;;;;;;;4.80;100.00;63426.84;5017982;28;20651;-56
2023/12/20 10:21:26;;;;;;;60.60;28.27;;;;;;;5.13;100.00;63468.28;5034946;28;20209;-55
2023/12/20 10:23:52;;;;;;;53.43;26.83;;;;;;;5.50;100.00;63503.03;5052770;28;20199;-62
2023/12/20 10:26:22;;;;;;;55.67;27.80;;;;;;;6.06;100.00;63565.97;5053186;28;20187;-54
2023/12/20 10:29:00;;;;;;;51.27;26.47;;;;;;;6.42;100.00;63605.22;5034706;28;20229;-55
2023/12/20 10:31:31;;;;;;;55.50;27.40;;;;;;;6.85;99.00;63648.50;5052733;28;20200;-54
2023/12/20 10:33:58;;;;;;;54.37;25.43;;;;;;;7.28;93.01;63695.41;5052607;28;20240;-57
2023/12/20 10:36:29;;;;;;;55.83;26.53;;;;;;;7.44;91.88;63710.34;5052691;28;20553;-58
2023/12/20 10:39:01;;;;;;;51.07;27.70;;;;;;;7.32;91.72;63702.25;5052597;28;20246;-54
2023/12/20 10:41:31;;;;;;;55.30;27.93;;;;;;;7.83;89.94;63757.38;5052498;28;20209;-56
2023/12/20 10:44:01;;;;;;;52.73;27.93;;;;;;;8.06;87.35;63777.47;5052399;28;20193;-55
2023/12/20 10:46:32;;;;;;;52.90;27.57;;;;;;;8.54;83.82;63829.91;5034705;28;20197;-54
2023/12/20 10:48:58;;;;;;;56.37;29.80;;;;;;;8.98;83.02;63879.94;5052459;28;20193;-55
2023/12/20 10:51:26;;;;;;;52.57;29.27;;;;;;;8.95;78.91;63874.13;5052646;28;20216;-53
2023/12/20 10:53:53;;;;;;;53.90;27.70;;;;;;;9.14;77.66;63897.41;5034443;28;20216;-55
2023/12/20 10:56:25;;;;;;;48.03;26.57;;;;;;;8.82;79.26;63863.00;5052559;28;20269;-54
2023/12/20 10:58:51;;;;;;;51.20;26.60;;;;;;;9.05;79.36;63885.63;5051282;28;20303;-55
2023/12/20 11:01:18;;;;;;;55.90;28.10;;;;;;;8.57;83.32;63835.13;5034255;28;20276;-55
2023/12/20 11:03:54;;;;;;;49.17;27.27;;;;;;;8.60;81.57;63836.47;5051923;28;20198;-55
2023/12/20 11:06:29;;;;;;;56.80;26.63;;;;;;;8.83;79.82;63861.03;5051929;28;20182;-55
2023/12/20 11:09:27;;;;;;;54.67;28.13;;;;;;;8.95;78.29;63877.19;5051979;28;20188;-54
2023/12/20 11:12:30;;;;;;;54.20;26.93;;;;;;;8.97;79.75;63878.84;5052222;28;20248;-54
2023/12/20 11:14:57;;;;;;;39.80;22.50;;;;;;;9.63;100.00;63950.44;5052041;28;20188;-54
2023/12/20 11:17:23;;;;;;;41.53;23.03;;;;;;;11.01;100.00;64100.91;5034021;28;20241;-56